createdAt,value
2023-02-28T00:01:21.777Z,8.77
2023-02-28T00:03:50.097Z,8.20
2023-02-28T00:06:17.277Z,7.40
2023-02-28T00:08:44.412Z,8.00
2023-02-28T00:11:14.330Z,7.77
2023-02-28T00:13:44.230Z,7.00
2023-02-28T00:16:14.093Z,6.87
2023-02-28T00:18:42.521Z,6.90
2023-02-28T00:21:10.832Z,7.17
2023-02-28T00:23:38.242Z,7.60
2023-02-28T00:26:05.386Z,7.67
2023-02-28T00:28:32.302Z,7.23
2023-02-28T00:31:00.869Z,7.83
2023-02-28T00:33:29.518Z,7.70
2023-02-28T00:36:04.375Z,8.00
2023-02-28T00:38:32.876Z,8.20
2023-02-28T00:41:05.319Z,8.13
2023-02-28T00:43:34.144Z,7.67
2023-02-28T00:46:01.332Z,8.37
2023-02-28T00:48:28.618Z,9.57
2023-02-28T00:50:55.508Z,9.40
2023-02-28T00:53:23.331Z,8.87
2023-02-28T00:55:52.094Z,9.00
2023-02-28T00:58:19.518Z,9.70
2023-02-28T01:00:50.286Z,8.57
2023-02-28T01:03:18.855Z,8.10
2023-02-28T01:05:46.746Z,8.20
2023-02-28T01:08:14.996Z,8.17
2023-02-28T01:10:42.178Z,7.50
2023-02-28T01:13:10.804Z,7.40
2023-02-28T01:15:38.120Z,7.47
2023-02-28T01:18:05.355Z,7.27
2023-02-28T01:20:32.201Z,7.20
2023-02-28T01:22:59.354Z,6.87
2023-02-28T01:25:26.413Z,7.07
2023-02-28T01:27:53.658Z,7.03
2023-02-28T01:30:22.040Z,7.13
2023-02-28T01:32:49.197Z,6.50
2023-02-28T01:35:16.142Z,7.33
2023-02-28T01:37:43.362Z,6.90
2023-02-28T01:40:11.311Z,7.10
2023-02-28T01:42:38.599Z,7.30
2023-02-28T01:45:20.079Z,7.10
2023-02-28T01:47:51.320Z,7.13
2023-02-28T01:50:21.496Z,7.47
2023-02-28T01:52:50.398Z,6.63
2023-02-28T01:55:19.486Z,6.63
2023-02-28T01:57:49.569Z,7.67
2023-02-28T02:00:19.003Z,6.93
2023-02-28T02:02:53.817Z,6.30
2023-02-28T02:05:23.051Z,7.10
2023-02-28T02:07:54.271Z,7.13
2023-02-28T02:10:23.346Z,7.30
2023-02-28T02:13:09.578Z,7.40
2023-02-28T02:15:43.406Z,6.40
2023-02-28T02:18:20.416Z,6.60
2023-02-28T02:21:05.263Z,6.30
2023-02-28T02:24:20.466Z,6.80
2023-02-28T02:26:59.292Z,6.13
2023-02-28T02:29:54.752Z,5.97
2023-02-28T02:32:41.441Z,5.73
2023-02-28T02:35:15.705Z,5.43
2023-02-28T02:37:48.508Z,5.53
2023-02-28T02:40:18.742Z,6.20
2023-02-28T02:42:51.971Z,5.83
2023-02-28T02:45:24.033Z,5.87
2023-02-28T02:47:53.611Z,5.30
2023-02-28T02:50:26.123Z,5.50
2023-02-28T02:56:53.782Z,5.53
2023-02-28T02:59:24.717Z,5.37
2023-02-28T03:01:54.660Z,5.07
2023-02-28T03:04:24.066Z,5.40
2023-02-28T03:06:56.550Z,5.53
2023-02-28T03:09:23.482Z,5.57
2023-02-28T03:11:53.305Z,5.43
2023-02-28T03:14:29.161Z,4.70
2023-02-28T03:17:10.009Z,4.67
2023-02-28T03:19:49.686Z,5.17
2023-02-28T03:22:32.966Z,5.83
2023-02-28T03:25:08.394Z,5.77
2023-02-28T03:27:41.237Z,5.30
2023-02-28T03:30:12.856Z,5.73
2023-02-28T03:32:47.688Z,5.57
2023-02-28T03:35:22.957Z,5.50
2023-02-28T03:37:56.996Z,5.13
2023-02-28T03:40:27.062Z,5.07
2023-02-28T03:43:00.835Z,5.00
2023-02-28T03:45:31.583Z,5.17
2023-02-28T03:48:03.811Z,5.27
2023-02-28T03:50:37.968Z,5.30
2023-02-28T03:53:12.333Z,5.10
2023-02-28T03:55:45.631Z,4.80
2023-02-28T03:58:18.424Z,5.60
2023-02-28T04:00:50.075Z,4.90
2023-02-28T04:03:17.016Z,4.80
2023-02-28T04:05:52.272Z,4.83
2023-02-28T04:08:20.879Z,5.20
2023-02-28T04:10:52.846Z,5.20
2023-02-28T04:13:19.935Z,5.00
2023-02-28T04:15:46.735Z,5.73
2023-02-28T04:18:13.843Z,5.63
2023-02-28T04:20:40.692Z,4.87
2023-02-28T04:23:07.835Z,5.47
2023-02-28T04:25:36.029Z,4.90
2023-02-28T04:28:03.136Z,4.97
2023-02-28T04:30:30.596Z,5.77
2023-02-28T04:32:57.642Z,5.70
2023-02-28T04:35:24.564Z,5.40
2023-02-28T04:37:51.566Z,5.20
2023-02-28T04:40:18.532Z,5.03
2023-02-28T04:42:47.060Z,5.03
2023-02-28T04:45:13.911Z,5.73
2023-02-28T04:47:41.072Z,5.53
2023-02-28T04:50:09.646Z,5.67
2023-02-28T04:52:36.453Z,6.00
2023-02-28T04:55:03.782Z,5.70
2023-02-28T04:57:30.995Z,5.27
2023-02-28T04:59:59.156Z,5.27
2023-02-28T05:02:26.012Z,5.43
2023-02-28T05:04:53.178Z,6.20
2023-02-28T05:07:19.972Z,5.53
2023-02-28T05:09:47.091Z,6.03
2023-02-28T05:12:13.897Z,6.20
2023-02-28T05:14:41.107Z,5.67
2023-02-28T05:17:10.184Z,5.80
2023-02-28T05:19:37.314Z,5.57
2023-02-28T05:22:04.159Z,5.70
2023-02-28T05:24:31.668Z,5.40
2023-02-28T05:26:58.871Z,5.77
2023-02-28T05:29:25.964Z,5.50
2023-02-28T05:31:52.878Z,5.67
2023-02-28T05:34:21.842Z,6.50
2023-02-28T05:36:48.601Z,6.53
2023-02-28T05:39:15.770Z,6.33
2023-02-28T05:41:43.498Z,6.07
2023-02-28T05:44:11.296Z,5.93
2023-02-28T05:46:39.365Z,6.43
2023-02-28T05:49:06.620Z,6.20
2023-02-28T05:51:37.226Z,6.10
2023-02-28T05:54:04.603Z,6.57
2023-02-28T05:56:31.520Z,6.50
2023-02-28T05:58:59.361Z,6.37
2023-02-28T06:01:33.634Z,5.73
2023-02-28T06:04:01.969Z,14.63
2023-02-28T06:06:29.182Z,9.67
2023-02-28T06:08:58.003Z,6.97
2023-02-28T06:11:28.502Z,6.63
2023-02-28T06:13:57.537Z,6.23
2023-02-28T06:16:25.294Z,6.10
2023-02-28T06:18:53.790Z,6.90
2023-02-28T06:21:20.639Z,6.90
2023-02-28T06:23:47.580Z,6.80
2023-02-28T06:26:16.041Z,7.20
2023-02-28T06:28:43.289Z,7.30
2023-02-28T06:31:12.689Z,6.70
2023-02-28T06:33:40.727Z,6.80
2023-02-28T06:36:09.006Z,6.43
2023-02-28T06:38:36.472Z,6.90
2023-02-28T06:41:03.926Z,6.47
2023-02-28T06:43:34.551Z,5.80
2023-02-28T06:46:03.395Z,6.37
2023-02-28T06:48:30.373Z,6.63
2023-02-28T06:51:03.578Z,6.30
2023-02-28T06:53:30.592Z,6.60
2023-02-28T06:55:57.456Z,7.10
2023-02-28T06:58:24.771Z,6.60
2023-02-28T07:00:53.700Z,6.50
2023-02-28T07:03:20.654Z,6.57
2023-02-28T07:05:47.656Z,5.97
2023-02-28T07:08:14.674Z,6.93
2023-02-28T07:10:42.203Z,6.50
2023-02-28T07:13:09.955Z,6.70
2023-02-28T07:15:41.216Z,6.10
2023-02-28T07:18:10.613Z,7.07
2023-02-28T07:20:37.476Z,6.87
2023-02-28T07:23:04.651Z,6.13
2023-02-28T07:25:31.442Z,5.93
2023-02-28T07:28:00.041Z,6.10
2023-02-28T07:30:27.292Z,5.90
2023-02-28T07:32:57.034Z,6.03
2023-02-28T07:35:25.331Z,5.70
2023-02-28T07:37:52.510Z,6.63
2023-02-28T07:40:19.993Z,6.37
2023-02-28T07:42:46.891Z,5.53
2023-02-28T07:45:13.813Z,6.40
2023-02-28T07:47:41.744Z,5.50
2023-02-28T07:50:11.377Z,5.37
2023-02-28T07:52:40.513Z,5.57
2023-02-28T07:55:10.504Z,5.10
2023-02-28T07:57:37.538Z,5.33
2023-02-28T08:00:05.402Z,5.60
2023-02-28T08:02:32.321Z,5.33
2023-02-28T08:05:00.690Z,5.30
2023-02-28T08:07:27.960Z,4.57
2023-02-28T08:09:56.139Z,4.70
2023-02-28T08:12:22.972Z,5.30
2023-02-28T08:14:50.158Z,4.83
2023-02-28T08:17:17.179Z,4.53
2023-02-28T08:19:46.717Z,4.73
2023-02-28T08:22:13.684Z,5.03
2023-02-28T08:24:43.492Z,4.77
2023-02-28T08:27:11.715Z,4.50
2023-02-28T08:29:39.613Z,5.03
2023-02-28T08:32:14.560Z,4.70
2023-02-28T08:34:48.173Z,5.10
2023-02-28T08:37:15.109Z,5.27
2023-02-28T08:39:42.136Z,6.97
2023-02-28T08:42:09.031Z,5.23
2023-02-28T08:44:37.636Z,4.53
2023-02-28T08:47:04.568Z,4.40
2023-02-28T08:49:31.716Z,4.17
2023-02-28T08:51:59.852Z,4.00
2023-02-28T08:54:26.657Z,4.03
2023-02-28T08:56:53.429Z,4.03
2023-02-28T08:59:20.588Z,4.33
2023-02-28T09:01:48.751Z,3.70
2023-02-28T09:04:18.623Z,4.20
2023-02-28T09:06:47.311Z,4.10
2023-02-28T09:09:14.167Z,4.30
2023-02-28T09:11:41.117Z,4.03
2023-02-28T09:14:08.014Z,4.30
2023-02-28T09:16:35.562Z,4.20
2023-02-28T09:19:04.007Z,3.70
2023-02-28T09:21:31.109Z,3.70
2023-02-28T09:23:58.249Z,3.60
2023-02-28T09:26:28.145Z,4.10
2023-02-28T09:29:00.135Z,3.90
2023-02-28T09:31:29.109Z,3.77
2023-02-28T09:33:58.421Z,4.00
2023-02-28T09:36:43.199Z,4.20
2023-02-28T09:39:10.817Z,4.27
2023-02-28T09:41:49.472Z,4.53
2023-02-28T09:44:22.706Z,4.47
2023-02-28T09:46:54.317Z,4.40
2023-02-28T09:49:25.133Z,4.07
2023-02-28T09:52:00.177Z,4.67
2023-02-28T09:54:30.879Z,3.57
2023-02-28T09:57:03.943Z,3.70
2023-02-28T09:59:39.821Z,3.80
2023-02-28T10:02:22.572Z,4.20
2023-02-28T10:04:55.809Z,3.10
2023-02-28T10:07:42.407Z,3.57
2023-02-28T10:10:21.086Z,3.60
2023-02-28T10:12:49.989Z,3.33
2023-02-28T10:15:18.433Z,3.20
2023-02-28T10:17:55.487Z,3.03
2023-02-28T10:20:36.774Z,2.90
2023-02-28T10:23:11.096Z,3.20
2023-02-28T10:25:39.243Z,3.13
2023-02-28T10:28:12.292Z,3.10
2023-02-28T10:30:42.282Z,2.43
2023-02-28T10:33:23.187Z,2.90
2023-02-28T10:35:50.326Z,2.93
2023-02-28T10:38:22.440Z,3.03
2023-02-28T10:40:49.396Z,3.30
2023-02-28T10:43:24.771Z,3.20
2023-02-28T10:46:02.177Z,2.63
2023-02-28T10:48:34.953Z,2.27
2023-02-28T10:51:02.666Z,2.17
2023-02-28T10:53:52.534Z,3.07
2023-02-28T10:56:25.775Z,2.43
2023-02-28T10:58:56.036Z,2.47
2023-02-28T11:01:24.976Z,2.13
2023-02-28T11:03:53.530Z,2.20
2023-02-28T11:06:23.391Z,2.10
2023-02-28T11:08:56.760Z,2.37
2023-02-28T11:11:26.484Z,2.40
2023-02-28T11:13:57.296Z,2.70
2023-02-28T11:16:33.920Z,2.50
2023-02-28T11:19:01.276Z,2.40
2023-02-28T11:21:31.268Z,2.63
2023-02-28T11:24:04.973Z,2.87
2023-02-28T11:26:40.392Z,2.60
2023-02-28T11:29:20.103Z,2.50
2023-02-28T11:32:19.466Z,3.00
2023-02-28T11:34:48.792Z,3.47
2023-02-28T11:37:18.837Z,2.43
2023-02-28T11:39:47.790Z,2.60
2023-02-28T11:42:39.354Z,2.30
2023-02-28T11:45:21.103Z,2.70
2023-02-28T11:47:55.050Z,3.00
2023-02-28T11:50:40.169Z,2.40
2023-02-28T11:53:15.241Z,2.73
2023-02-28T11:55:49.677Z,2.73
2023-02-28T11:58:29.127Z,2.27
2023-02-28T12:01:15.539Z,2.50
2023-02-28T12:03:52.244Z,2.17
2023-02-28T12:06:25.800Z,2.67
2023-02-28T12:09:12.950Z,2.60
2023-02-28T12:11:51.699Z,2.37
2023-02-28T12:14:43.483Z,3.17
2023-02-28T12:17:22.972Z,3.50
2023-02-28T12:19:57.693Z,3.17
2023-02-28T12:22:41.500Z,2.33
2023-02-28T12:25:41.961Z,2.30
2023-02-28T12:28:13.451Z,2.97
2023-02-28T12:30:48.037Z,3.75
2023-02-28T12:33:17.568Z,2.45
2023-02-28T12:35:50.772Z,2.20
2023-02-28T12:38:23.031Z,2.55
2023-02-28T12:40:54.951Z,3.90
2023-02-28T12:43:28.622Z,3.40
2023-02-28T12:45:59.626Z,2.33
2023-02-28T12:48:32.941Z,1.85
2023-02-28T12:51:03.173Z,2.17
2023-02-28T12:53:38.827Z,2.20
2023-02-28T12:56:15.003Z,2.20
2023-02-28T12:58:48.178Z,2.35
2023-02-28T13:01:37.384Z,2.75
2023-02-28T13:04:34.271Z,2.85
2023-02-28T13:07:18.711Z,2.38
2023-02-28T13:09:57.379Z,2.03
2023-02-28T13:12:25.448Z,2.10
2023-02-28T13:15:05.576Z,2.15
2023-02-28T13:17:33.284Z,2.10
2023-02-28T13:20:01.301Z,2.28
2023-02-28T13:22:40.410Z,2.40
2023-02-28T13:25:52.695Z,2.15
2023-02-28T13:28:55.204Z,2.15
2023-02-28T13:31:23.780Z,2.10
2023-02-28T13:34:13.125Z,2.40
2023-02-28T13:36:40.422Z,2.60
2023-02-28T13:39:40.807Z,12.30
2023-02-28T13:42:37.407Z,2.90
2023-02-28T13:45:26.571Z,2.53
2023-02-28T13:47:59.413Z,2.25
2023-02-28T13:50:31.917Z,2.20
2023-02-28T13:53:35.596Z,2.17
2023-02-28T13:56:11.328Z,2.28
2023-02-28T13:58:56.413Z,2.60
2023-02-28T14:01:52.645Z,2.13
2023-02-28T14:04:49.502Z,3.60
2023-02-28T14:07:23.038Z,2.40
2023-02-28T14:09:58.482Z,2.72
2023-02-28T14:12:53.560Z,2.60
2023-02-28T14:15:45.422Z,2.58
2023-02-28T14:18:28.033Z,2.55
2023-02-28T14:21:02.745Z,2.50
2023-02-28T14:23:51.220Z,2.80
2023-02-28T14:26:33.957Z,2.70
2023-02-28T14:29:37.175Z,2.40
2023-02-28T14:32:12.294Z,2.67
2023-02-28T14:34:46.573Z,2.63
2023-02-28T14:37:21.185Z,2.65
2023-02-28T14:39:49.104Z,2.65
2023-02-28T14:42:33.987Z,2.70
2023-02-28T14:45:01.053Z,2.85
2023-02-28T14:47:31.873Z,2.55
2023-02-28T14:49:59.651Z,2.20
2023-02-28T14:52:30.996Z,2.70
2023-02-28T14:55:03.905Z,2.55
2023-02-28T14:57:33.720Z,2.75
2023-02-28T15:00:05.065Z,3.10
2023-02-28T15:02:35.176Z,2.65
2023-02-28T15:05:11.107Z,2.60
2023-02-28T15:07:39.698Z,2.83
2023-02-28T15:10:20.205Z,2.65
2023-02-28T15:12:53.706Z,3.10
2023-02-28T15:15:28.146Z,3.33
2023-02-28T15:18:05.974Z,2.88
2023-02-28T15:20:34.081Z,2.92
2023-02-28T15:23:03.079Z,3.15
2023-02-28T15:25:30.021Z,3.10
2023-02-28T15:27:58.342Z,2.92
2023-02-28T15:30:27.799Z,3.37
2023-02-28T15:33:09.293Z,6.40
2023-02-28T15:35:37.092Z,8.37
2023-02-28T15:38:16.378Z,6.73
2023-02-28T15:40:45.979Z,3.50
2023-02-28T15:43:17.744Z,3.20
2023-02-28T15:45:48.058Z,3.30
2023-02-28T15:48:19.542Z,3.77
2023-02-28T15:50:49.854Z,3.20
2023-02-28T15:53:22.823Z,3.60
2023-02-28T15:55:57.600Z,3.60
2023-02-28T15:58:25.860Z,3.43
2023-02-28T16:01:06.638Z,3.63
2023-02-28T16:03:42.059Z,3.70
2023-02-28T16:06:33.010Z,3.73
2023-02-28T16:09:01.577Z,3.57
2023-02-28T16:11:29.284Z,3.30
2023-02-28T16:13:56.331Z,3.90
2023-02-28T16:16:25.812Z,3.23
2023-02-28T16:18:53.860Z,3.57
2023-02-28T16:21:20.827Z,6.80
2023-02-28T16:23:48.028Z,8.40
2023-02-28T16:26:22.051Z,5.77
2023-02-28T16:28:49.761Z,4.67
2023-02-28T16:31:17.554Z,4.37
2023-02-28T16:33:46.006Z,3.83
2023-02-28T16:36:18.389Z,4.53
2023-02-28T16:38:46.146Z,3.80
2023-02-28T16:41:19.986Z,4.33
2023-02-28T16:43:49.769Z,4.93
2023-02-28T16:46:17.770Z,5.77
2023-02-28T16:48:45.518Z,5.87
2023-02-28T16:51:16.707Z,5.63
2023-02-28T16:53:44.232Z,4.77
2023-02-28T16:56:19.372Z,5.80
2023-02-28T16:58:47.638Z,6.20
2023-02-28T17:01:15.211Z,8.00
2023-02-28T17:03:42.895Z,6.77
2023-02-28T17:06:19.091Z,6.70
2023-02-28T17:08:46.117Z,6.03
2023-02-28T17:11:13.002Z,5.63
2023-02-28T17:13:41.515Z,4.97
2023-02-28T17:16:18.539Z,4.90
2023-02-28T17:18:45.803Z,4.60
2023-02-28T17:21:15.127Z,4.90
2023-02-28T17:23:42.451Z,4.60
2023-02-28T17:26:14.347Z,4.33
2023-02-28T17:28:42.706Z,4.70
2023-02-28T17:31:10.289Z,5.00
2023-02-28T17:33:37.573Z,6.03
2023-02-28T17:36:04.991Z,6.30
2023-02-28T17:38:32.227Z,6.87
2023-02-28T17:40:59.067Z,7.07
2023-02-28T17:43:26.961Z,6.53
2023-02-28T17:45:55.757Z,6.70
2023-02-28T17:48:22.636Z,8.00
2023-02-28T17:50:49.464Z,17.33
2023-02-28T17:53:16.969Z,9.50
2023-02-28T17:55:43.898Z,7.40
2023-02-28T17:58:14.938Z,6.53
2023-02-28T18:00:41.833Z,5.80
2023-02-28T18:03:10.953Z,6.00
2023-02-28T18:05:38.194Z,5.87
2023-02-28T18:08:05.091Z,11.27
2023-02-28T18:10:34.201Z,9.70
2023-02-28T18:13:01.194Z,8.50
2023-02-28T18:15:27.985Z,7.40
2023-02-28T18:17:54.828Z,9.10
2023-02-28T18:20:22.965Z,8.40
2023-02-28T18:22:49.784Z,7.17
2023-02-28T18:25:17.909Z,6.30
2023-02-28T18:27:54.059Z,4.60
2023-02-28T18:30:21.730Z,7.30
2023-02-28T18:32:48.596Z,6.97
2023-02-28T18:35:15.796Z,5.70
2023-02-28T18:37:44.370Z,5.43
2023-02-28T18:40:12.550Z,7.33
2023-02-28T18:42:39.616Z,8.33
2023-02-28T18:45:07.983Z,8.87
2023-02-28T18:47:35.411Z,9.10
2023-02-28T18:50:02.305Z,8.90
2023-02-28T18:52:29.560Z,8.77
2023-02-28T18:54:57.693Z,8.83
2023-02-28T18:57:24.849Z,10.10
2023-02-28T18:59:51.888Z,10.23
2023-02-28T19:02:19.369Z,10.03
2023-02-28T19:04:46.272Z,10.67
2023-02-28T19:07:13.148Z,11.63
2023-02-28T19:09:40.048Z,13.00
2023-02-28T19:12:08.637Z,12.30
2023-02-28T19:14:35.706Z,14.47
2023-02-28T19:17:02.607Z,11.30
2023-02-28T19:19:29.506Z,13.63
2023-02-28T19:21:56.583Z,34.97
2023-02-28T19:24:23.329Z,16.30
2023-02-28T19:26:50.372Z,9.23
2023-02-28T19:29:18.524Z,8.97
2023-02-28T19:31:46.482Z,9.67
2023-02-28T19:34:13.371Z,14.27
2023-02-28T19:36:40.492Z,9.30
2023-02-28T19:39:07.301Z,8.33
2023-02-28T19:41:34.183Z,7.47
2023-02-28T19:44:01.063Z,7.73
2023-02-28T19:46:29.309Z,8.83
2023-02-28T19:48:56.247Z,9.70
2023-02-28T19:51:24.206Z,10.13
2023-02-28T19:53:51.322Z,9.47
2023-02-28T19:56:18.219Z,9.80
2023-02-28T19:58:45.176Z,10.73
2023-02-28T20:01:14.202Z,10.57
2023-02-28T20:03:43.366Z,12.00
2023-02-28T20:06:13.732Z,12.53
2023-02-28T20:08:41.350Z,15.90
2023-02-28T20:11:16.058Z,16.87
2023-02-28T20:13:43.831Z,14.63
2023-02-28T20:16:12.689Z,19.80
2023-02-28T20:18:40.945Z,16.57
2023-02-28T20:21:09.904Z,13.43
2023-02-28T20:23:38.026Z,13.20
2023-02-28T20:26:05.099Z,14.03
2023-02-28T20:28:32.288Z,13.97
2023-02-28T20:31:00.732Z,13.33
2023-02-28T20:33:27.802Z,13.47
2023-02-28T20:35:59.908Z,13.90
2023-02-28T20:38:28.461Z,13.27
2023-02-28T20:40:56.723Z,13.37
2023-02-28T20:43:23.990Z,13.00
2023-02-28T20:45:51.519Z,12.80
2023-02-28T20:48:18.485Z,13.57
2023-02-28T20:50:48.721Z,12.97
2023-02-28T20:53:15.895Z,11.50
2023-02-28T20:55:53.765Z,11.70
2023-02-28T20:58:20.850Z,11.60
2023-02-28T21:00:47.852Z,11.43
2023-02-28T21:03:14.748Z,12.13
2023-02-28T21:05:41.570Z,13.10
2023-02-28T21:08:08.442Z,12.63
2023-02-28T21:10:35.242Z,13.43
2023-02-28T21:13:03.405Z,13.70
2023-02-28T21:15:30.293Z,12.93
2023-02-28T21:17:57.204Z,13.40
2023-02-28T21:20:24.128Z,13.57
2023-02-28T21:22:51.716Z,12.57
2023-02-28T21:25:18.838Z,13.70
2023-02-28T21:27:45.999Z,13.10
2023-02-28T21:30:14.410Z,12.87
2023-02-28T21:32:41.380Z,11.83
2023-02-28T21:35:08.929Z,11.80
2023-02-28T21:37:37.760Z,12.10
2023-02-28T21:40:05.290Z,11.50
2023-02-28T21:42:32.546Z,11.10
2023-02-28T21:45:00.848Z,11.63
2023-02-28T21:47:30.455Z,11.10
2023-02-28T21:49:57.228Z,11.83
2023-02-28T21:52:24.563Z,13.50
2023-02-28T21:54:51.488Z,15.23
2023-02-28T21:57:18.393Z,15.87
2023-02-28T21:59:45.628Z,15.87
2023-02-28T22:02:13.250Z,14.30
2023-02-28T22:04:42.429Z,13.70
2023-02-28T22:07:09.260Z,13.17
2023-02-28T22:09:36.112Z,12.13
2023-02-28T22:12:03.191Z,12.40
2023-02-28T22:14:30.000Z,12.23
2023-02-28T22:16:57.334Z,11.73
2023-02-28T22:19:24.691Z,12.17
2023-02-28T22:21:54.121Z,11.77
2023-02-28T22:24:24.129Z,12.03
2023-02-28T22:26:51.777Z,11.83
2023-02-28T22:29:18.943Z,12.50
2023-02-28T22:31:45.971Z,12.43
2023-02-28T22:34:13.424Z,13.17
2023-02-28T22:36:41.094Z,13.13
2023-02-28T22:39:09.733Z,13.43
2023-02-28T22:41:37.076Z,12.97
2023-02-28T22:44:05.209Z,13.10
2023-02-28T22:46:34.550Z,12.57
2023-02-28T22:49:03.381Z,12.40
2023-02-28T22:51:31.009Z,11.90
2023-02-28T22:53:58.638Z,12.67
2023-02-28T22:56:29.372Z,12.50
2023-02-28T22:58:57.784Z,12.30
2023-02-28T23:01:27.278Z,12.23
2023-02-28T23:03:55.480Z,11.93
2023-02-28T23:06:24.738Z,12.30
2023-02-28T23:08:53.251Z,12.07
2023-02-28T23:11:21.786Z,12.13
2023-02-28T23:13:59.389Z,12.27
2023-02-28T23:16:29.837Z,12.47
2023-02-28T23:18:57.890Z,12.13
2023-02-28T23:21:25.855Z,12.33
2023-02-28T23:23:52.951Z,11.93
2023-02-28T23:26:20.330Z,11.87
2023-02-28T23:28:47.124Z,11.67
2023-02-28T23:31:15.819Z,11.30
2023-02-28T23:33:42.834Z,11.53
2023-02-28T23:36:11.597Z,11.40
2023-02-28T23:38:39.264Z,11.57
2023-02-28T23:41:10.118Z,11.60
2023-02-28T23:43:37.504Z,10.80
2023-02-28T23:46:05.207Z,10.33
2023-02-28T23:48:33.818Z,11.37
2023-02-28T23:51:02.012Z,10.33
2023-02-28T23:53:31.474Z,10.50
2023-02-28T23:55:58.590Z,10.83
2023-02-28T23:58:25.541Z,11.77
